Time;durP1;ratioP1;P1;durP2;ratioP2;P2;SDS_P1;SDS_P2;PMS_P1;PMS_P2;Temp;Humidity;BMP_temperature;BMP_pressure;BME280_temperature;BME280_humidity;BME280_pressure;Samples;Min_cycle;Max_cycle;Signal;HPM_P1;HPM_P2
2022/01/07 00:00:27;;;;;;;;;;;;;;;;;;6155566;23;19909;-73
2022/01/07 00:02:53;;;;;;;;;;;;;;;;;;6154818;23;20266;-74
2022/01/07 00:05:18;;;;;;;;;;;;;;;;;;6155605;23;19960;-73
2022/01/07 00:07:44;;;;;;;;;;;;;;;;;;6154954;23;19905;-74
2022/01/07 00:10:10;;;;;;;;;;;;;;;;;;6155408;23;19959;-74
2022/01/07 00:12:36;;;;;;;;;;;;;;;;;;6155169;23;20289;-73
2022/01/07 00:15:02;;;;;;;;;;;;;;;;;;6155646;23;19905;-74
2022/01/07 00:17:28;;;;;;;;;;;;;;;;;;6154880;23;19972;-73
2022/01/07 00:19:54;;;;;;;;;;;;;;;;;;6155132;23;19999;-73
2022/01/07 00:22:20;;;;;;;;;;;;;;;;;;6129226;23;19911;-73
2022/01/07 00:24:46;;;;;;;;;;;;;;;;;;6129383;23;19905;-74
2022/01/07 00:27:11;;;;;;;;;;;;;;;;;;6155491;23;19943;-74
2022/01/07 00:29:37;;;;;;;;;;;;;;;;;;6155194;23;20231;-74
2022/01/07 00:32:03;;;;;;;;;;;;;;;;;;6154797;23;19905;-73
2022/01/07 00:34:29;;;;;;;;;;;;;;;;;;6155346;23;19924;-73
2022/01/07 00:36:55;;;;;;;;;;;;;;;;;;6155180;23;19905;-73
2022/01/07 00:39:21;;;;;;;;;;;;;;;;;;6155408;23;19959;-73
2022/01/07 00:41:47;;;;;;;;;;;;;;;;;;6155179;23;19908;-74
2022/01/07 00:44:13;;;;;;;;;;;;;;;;;;6155321;23;19904;-73
2022/01/07 00:46:39;;;;;;;;;;;;;;;;;;6154710;23;19959;-73
2022/01/07 00:49:05;;;;;;;;;;;;;;;;;;6155292;23;20330;-74
2022/01/07 00:51:31;;;;;;;;;;;;;;;;;;6155525;23;19905;-74
2022/01/07 00:53:57;;;;;;;;;;;;;;;;;;6155237;23;19959;-73
2022/01/07 00:56:23;;;;;;;;;;;;;;;;;;6155429;23;19910;-73
2022/01/07 00:58:48;;;;;;;;;;;;;;;;;;6154946;23;19904;-74
2022/01/07 01:01:14;;;;;;;;;;;;;;;;;;6154920;23;19905;-73
2022/01/07 01:03:40;;;;;;;;;;;;;;;;;;6154961;23;19928;-74
2022/01/07 01:06:06;;;;;;;;;;;;;;;;;;6155446;23;20319;-74
2022/01/07 01:08:32;;;;;;;;;;;;;;;;;;6155170;23;19905;-74
2022/01/07 01:10:58;;;;;;;;;;;;;;;;;;6154711;23;19905;-73
2022/01/07 01:13:24;;;;;;;;;;;;;;;;;;6155311;23;19915;-73
2022/01/07 01:15:50;;;;;;;;;;;;;;;;;;6154461;23;19904;-73
2022/01/07 01:18:16;;;;;;;;;;;;;;;;;;6155165;23;19916;-73
2022/01/07 01:20:42;;;;;;;;;;;;;;;;;;6155304;23;19912;-74
2022/01/07 01:23:08;;;;;;;;;;;;;;;;;;6154918;23;19905;-74
2022/01/07 01:25:34;;;;;;;;;;;;;;;;;;6155172;23;20297;-74
2022/01/07 01:27:59;;;;;;;;;;;;;;;;;;6156279;23;19933;-74
2022/01/07 01:30:31;;;;;;;;;;;;;;;;;;6129733;23;20385;-75
2022/01/07 01:32:57;;;;;;;;;;;;;;;;;;6156548;23;19924;-73
2022/01/07 01:35:23;;;;;;;;;;;;;;;;;;6156753;23;20114;-73
2022/01/07 01:37:49;;;;;;;;;;;;;;;;;;6156611;23;19983;-74
2022/01/07 01:40:15;;;;;;;;;;;;;;;;;;6156821;23;19911;-74
2022/01/07 01:42:41;;;;;;;;;;;;;;;;;;6156783;23;19904;-73
2022/01/07 01:45:07;;;;;;;;;;;;;;;;;;6156802;23;19905;-73
2022/01/07 01:47:32;;;;;;;;;;;;;;;;;;6156954;23;19911;-74
2022/01/07 01:49:58;;;;;;;;;;;;;;;;;;6130173;23;19908;-74
2022/01/07 01:52:24;;;;;;;;;;;;;;;;;;6157112;23;19931;-74
2022/01/07 01:54:50;;;;;;;;;;;;;;;;;;6156343;23;20219;-73
2022/01/07 01:57:16;;;;;;;;;;;;;;;;;;6156900;23;19904;-74
2022/01/07 01:59:42;;;;;;;;;;;;;;;;;;6156202;23;19908;-74
2022/01/07 02:02:08;;;;;;;;;;;;;;;;;;6130233;23;19940;-73
2022/01/07 02:04:36;;;;;;;;;;;;;;;;;;6156512;23;19987;-74
2022/01/07 02:07:02;;;;;;;;;;;;;;;;;;6156403;23;19905;-74
2022/01/07 02:09:35;;;;;;;;;;;;;;;;;;6156960;23;19909;-74
2022/01/07 02:12:01;;;;;;;;;;;;;;;;;;6156249;23;19904;-74
2022/01/07 02:14:28;;;;;;;;;;;;;;;;;;6156259;23;19956;-74
2022/01/07 02:16:53;;;;;;;;;;;;;;;;;;6156454;23;19916;-74
2022/01/07 02:19:19;;;;;;;;;;;;;;;;;;6156715;23;20327;-74
2022/01/07 02:21:45;;;;;;;;;;;;;;;;;;6156651;23;19955;-74
2022/01/07 02:24:11;;;;;;;;;;;;;;;;;;6156053;23;19908;-74
2022/01/07 02:26:37;;;;;;;;;;;;;;;;;;6156511;23;19923;-74
2022/01/07 02:29:03;;;;;;;;;;;;;;;;;;6156027;23;19913;-74
2022/01/07 02:31:29;;;;;;;;;;;;;;;;;;6156539;23;19927;-74
2022/01/07 02:33:55;;;;;;;;;;;;;;;;;;6156202;23;20320;-74
2022/01/07 02:36:21;;;;;;;;;;;;;;;;;;6156270;23;19943;-74
2022/01/07 02:38:46;;;;;;;;;;;;;;;;;;6155749;23;19916;-73
2022/01/07 02:41:12;;;;;;;;;;;;;;;;;;6156146;23;19905;-74
2022/01/07 02:43:38;;;;;;;;;;;;;;;;;;6156006;23;19905;-74
2022/01/07 02:46:04;;;;;;;;;;;;;;;;;;6156052;23;19904;-74
2022/01/07 02:48:30;;;;;;;;;;;;;;;;;;6156088;23;19911;-73
2022/01/07 02:50:56;;;;;;;;;;;;;;;;;;6156137;23;19980;-74
2022/01/07 02:53:22;;;;;;;;;;;;;;;;;;6156112;23;19905;-74
2022/01/07 02:55:49;;;;;;;;;;;;;;;;;;6129702;23;19960;-74
2022/01/07 02:58:15;;;;;;;;;;;;;;;;;;6155991;23;19998;-74
2022/01/07 03:00:41;;;;;;;;;;;;;;;;;;6155790;23;19904;-73
2022/01/07 03:03:07;;;;;;;;;;;;;;;;;;6156007;23;19956;-74
2022/01/07 03:05:33;;;;;;;;;;;;;;;;;;6155947;23;20278;-74
2022/01/07 03:07:59;;;;;;;;;;;;;;;;;;6155981;23;19939;-73
2022/01/07 03:10:26;;;;;;;;;;;;;;;;;;6155669;23;19908;-73
2022/01/07 03:12:52;;;;;;;;;;;;;;;;;;6129195;23;19909;-73
2022/01/07 03:15:17;;;;;;;;;;;;;;;;;;6156182;23;20323;-73
2022/01/07 03:17:43;;;;;;;;;;;;;;;;;;6155621;23;19908;-74
2022/01/07 03:20:09;;;;;;;;;;;;;;;;;;6156072;23;19980;-74
2022/01/07 03:22:35;;;;;;;;;;;;;;;;;;6155732;23;20378;-74
2022/01/07 03:25:01;;;;;;;;;;;;;;;;;;6155988;23;19983;-74
2022/01/07 03:27:27;;;;;;;;;;;;;;;;;;6155378;23;19905;-74
2022/01/07 03:29:53;;;;;;;;;;;;;;;;;;6155699;23;19908;-73
2022/01/07 03:32:19;;;;;;;;;;;;;;;;;;6129272;23;19905;-74
2022/01/07 03:34:45;;;;;;;;;;;;;;;;;;6155871;23;19916;-74
2022/01/07 03:37:10;;;;;;;;;;;;;;;;;;6155360;23;19908;-74
2022/01/07 03:39:36;;;;;;;;;;;;;;;;;;6156014;23;20294;-74
2022/01/07 03:42:02;;;;;;;;;;;;;;;;;;6129423;23;19932;-73
2022/01/07 03:44:28;;;;;;;;;;;;;;;;;;6155828;23;19905;-74
2022/01/07 03:46:54;;;;;;;;;;;;;;;;;;6155637;23;19909;-74
2022/01/07 03:49:20;;;;;;;;;;;;;;;;;;6155413;23;19912;-74
2022/01/07 03:51:46;;;;;;;;;;;;;;;;;;6155557;23;20024;-74
2022/01/07 03:54:12;;;;;;;;;;;;;;;;;;6155564;23;19900;-73
2022/01/07 03:56:38;;;;;;;;;;;;;;;;;;6155019;23;19905;-73
2022/01/07 03:59:04;;;;;;;;;;;;;;;;;;6155483;23;20354;-74
2022/01/07 04:01:30;;;;;;;;;;;;;;;;;;6155988;23;19911;-73
2022/01/07 04:03:55;;;;;;;;;;;;;;;;;;6155158;23;19908;-73
2022/01/07 04:06:21;;;;;;;;;;;;;;;;;;6154962;23;19915;-73
2022/01/07 04:08:48;;;;;;;;;;;;;;;;;;6155382;23;19909;-74
2022/01/07 04:11:14;;;;;;;;;;;;;;;;;;6155095;23;19908;-73
2022/01/07 04:13:39;;;;;;;;;;;;;;;;;;6129016;23;20337;-74
2022/01/07 04:16:05;;;;;;;;;;;;;;;;;;6155349;23;19943;-74
2022/01/07 04:18:31;;;;;;;;;;;;;;;;;;6155491;23;19991;-74
2022/01/07 04:20:57;;;;;;;;;;;;;;;;;;6155398;23;20266;-74
2022/01/07 04:23:23;;;;;;;;;;;;;;;;;;6129437;23;19905;-74
2022/01/07 04:25:49;;;;;;;;;;;;;;;;;;6154738;23;19980;-74
2022/01/07 04:28:15;;;;;;;;;;;;;;;;;;6155073;23;19915;-73
2022/01/07 04:30:41;;;;;;;;;;;;;;;;;;6155126;23;19919;-74
2022/01/07 04:33:08;;;;;;;;;;;;;;;;;;6155296;23;20381;-73
2022/01/07 04:35:34;;;;;;;;;;;;;;;;;;6128762;23;20335;-73
2022/01/07 04:38:00;;;;;;;;;;;;;;;;;;6155415;23;19911;-73
2022/01/07 04:40:27;;;;;;;;;;;;;;;;;;6154453;23;19904;-73
2022/01/07 04:42:53;;;;;;;;;;;;;;;;;;6154893;23;19916;-74
2022/01/07 04:45:19;;;;;;;;;;;;;;;;;;6155114;23;20300;-73
2022/01/07 04:47:45;;;;;;;;;;;;;;;;;;6155220;23;19904;-74
2022/01/07 04:50:11;;;;;;;;;;;;;;;;;;6155348;23;19909;-73
2022/01/07 04:52:38;;;;;;;;;;;;;;;;;;6155188;23;19904;-74
2022/01/07 04:55:04;;;;;;;;;;;;;;;;;;6154803;23;19909;-74
2022/01/07 04:57:30;;;;;;;;;;;;;;;;;;6128755;23;20315;-74
2022/01/07 04:59:56;;;;;;;;;;;;;;;;;;6155144;23;19909;-74
2022/01/07 05:02:22;;;;;;;;;;;;;;;;;;6157009;23;19905;-74
2022/01/07 05:04:48;;;;;;;;;;;;;;;;;;6157237;23;19905;-74
2022/01/07 05:07:14;;;;;;;;;;;;;;;;;;6157128;23;19909;-74
2022/01/07 05:09:39;;;;;;;;;;;;;;;;;;6156824;23;20243;-74
2022/01/07 05:12:05;;;;;;;;;;;;;;;;;;6157252;23;19912;-76
2022/01/07 05:14:31;;;;;;;;;;;;;;;;;;6157529;23;19905;-76
2022/01/07 05:16:57;;;;;;;;;;;;;;;;;;6157038;23;19915;-75
2022/01/07 05:19:23;;;;;;;;;;;;;;;;;;6157012;23;19904;-74
2022/01/07 05:21:49;;;;;;;;;;;;;;;;;;6157258;23;20014;-75
2022/01/07 05:24:15;;;;;;;;;;;;;;;;;;6156885;23;19909;-75
2022/01/07 05:26:41;;;;;;;;;;;;;;;;;;6156956;23;20347;-75
2022/01/07 05:29:07;;;;;;;;;;;;;;;;;;6156653;23;19990;-75
2022/01/07 05:31:33;;;;;;;;;;;;;;;;;;6157200;23;19979;-75
2022/01/07 05:33:59;;;;;;;;;;;;;;;;;;6156231;23;20003;-75
2022/01/07 05:36:24;;;;;;;;;;;;;;;;;;6156609;23;19905;-75
2022/01/07 05:38:50;;;;;;;;;;;;;;;;;;6156470;23;19904;-75
2022/01/07 05:41:16;;;;;;;;;;;;;;;;;;6156911;23;19985;-74
2022/01/07 05:43:42;;;;;;;;;;;;;;;;;;6156528;23;20062;-74
2022/01/07 05:46:10;;;;;;;;;;;;;;;;;;6156277;23;19905;-75
2022/01/07 05:48:36;;;;;;;;;;;;;;;;;;6155883;23;20246;-74
2022/01/07 05:51:02;;;;;;;;;;;;;;;;;;6130426;23;19933;-74
2022/01/07 05:53:28;;;;;;;;;;;;;;;;;;6156457;23;20320;-74
2022/01/07 05:55:54;;;;;;;;;;;;;;;;;;6156446;23;19916;-74
2022/01/07 05:58:19;;;;;;;;;;;;;;;;;;6130413;23;20323;-74
2022/01/07 06:00:45;;;;;;;;;;;;;;;;;;6156304;23;19908;-74
2022/01/07 06:03:11;;;;;;;;;;;;;;;;;;6156944;23;19951;-74
2022/01/07 06:05:37;;;;;;;;;;;;;;;;;;6155701;23;20291;-73
2022/01/07 06:08:03;;;;;;;;;;;;;;;;;;6156155;23;19904;-74
2022/01/07 06:10:29;;;;;;;;;;;;;;;;;;6156283;23;19935;-73
2022/01/07 06:12:55;;;;;;;;;;;;;;;;;;6155284;23;19908;-73
2022/01/07 06:15:21;;;;;;;;;;;;;;;;;;6156356;23;19909;-74
2022/01/07 06:17:47;;;;;;;;;;;;;;;;;;6156515;23;20397;-73
2022/01/07 06:20:13;;;;;;;;;;;;;;;;;;6156158;23;19928;-74
2022/01/07 06:22:38;;;;;;;;;;;;;;;;;;6160707;23;19958;-73
2022/01/07 06:25:04;;;;;;;;;;;;;;;;;;6156043;23;20243;-73
2022/01/07 06:27:30;;;;;;;;;;;;;;;;;;6156503;23;19957;-73
2022/01/07 06:29:57;;;;;;;;;;;;;;;;;;6155816;23;19995;-73
2022/01/07 06:32:23;;;;;;;;;;;;;;;;;;6156115;23;19955;-73
2022/01/07 06:34:49;;;;;;;;;;;;;;;;;;6155537;23;20304;-73
2022/01/07 06:37:15;;;;;;;;;;;;;;;;;;6156631;23;19912;-73
2022/01/07 06:39:41;;;;;;;;;;;;;;;;;;6155885;23;19904;-73
2022/01/07 06:42:07;;;;;;;;;;;;;;;;;;6156463;23;20235;-73
2022/01/07 06:44:32;;;;;;;;;;;;;;;;;;6156210;23;19912;-73
2022/01/07 06:46:58;;;;;;;;;;;;;;;;;;6156312;23;19955;-73
2022/01/07 06:49:24;;;;;;;;;;;;;;;;;;6155812;23;19909;-73
2022/01/07 06:51:51;;;;;;;;;;;;;;;;;;6156279;23;19912;-73
2022/01/07 06:54:17;;;;;;;;;;;;;;;;;;6155957;23;19905;-73
2022/01/07 06:56:43;;;;;;;;;;;;;;;;;;6155748;23;20342;-73
2022/01/07 06:59:09;;;;;;;;;;;;;;;;;;6155969;23;19905;-73
2022/01/07 07:01:35;;;;;;;;;;;;;;;;;;6156264;23;19904;-73
2022/01/07 07:04:01;;;;;;;;;;;;;;;;;;6155802;23;20255;-73
2022/01/07 07:06:27;;;;;;;;;;;;;;;;;;6156045;23;20323;-73
2022/01/07 07:08:52;;;;;;;;;;;;;;;;;;6155440;23;19909;-73
2022/01/07 07:11:18;;;;;;;;;;;;;;;;;;6155866;23;19905;-73
2022/01/07 07:13:44;;;;;;;;;;;;;;;;;;6155646;23;19905;-73
2022/01/07 07:16:10;;;;;;;;;;;;;;;;;;6155901;23;19905;-73
2022/01/07 07:18:36;;;;;;;;;;;;;;;;;;6129249;23;19908;-73
2022/01/07 07:21:02;;;;;;;;;;;;;;;;;;6155916;23;19932;-73
2022/01/07 07:23:28;;;;;;;;;;;;;;;;;;6156004;23;19905;-73
2022/01/07 07:25:54;;;;;;;;;;;;;;;;;;6129139;23;20242;-73
2022/01/07 07:28:20;;;;;;;;;;;;;;;;;;6156227;23;19904;-73
2022/01/07 07:30:47;;;;;;;;;;;;;;;;;;6155446;23;19909;-73
2022/01/07 07:38:32;;;;;;;;;;;;;;;;;;6155685;23;19933;-73
2022/01/07 07:40:57;;;;;;;;;;;;;;;;;;6155597;23;20297;-73
2022/01/07 07:43:23;;;;;;;;;;;;;;;;;;6155623;23;19928;-73
2022/01/07 07:45:49;;;;;;;;;;;;;;;;;;6155580;23;19905;-73
2022/01/07 07:48:15;;;;;;;;;;;;;;;;;;6155495;23;19904;-73
2022/01/07 07:50:41;;;;;;;;;;;;;;;;;;6155348;23;19909;-73
2022/01/07 07:53:07;;;;;;;;;;;;;;;;;;6155576;23;19911;-73
2022/01/07 07:55:33;;;;;;;;;;;;;;;;;;6155601;23;19905;-73
2022/01/07 07:57:59;;;;;;;;;;;;;;;;;;6155332;23;19905;-73
2022/01/07 08:00:25;;;;;;;;;;;;;;;;;;6155766;23;19912;-73
2022/01/07 08:02:50;;;;;;;;;;;;;;;;;;6154708;23;20251;-73
2022/01/07 08:05:16;;;;;;;;;;;;;;;;;;6155225;23;20268;-73
2022/01/07 08:07:42;;;;;;;;;;;;;;;;;;6155063;23;19904;-72
2022/01/07 08:10:08;;;;;;;;;;;;;;;;;;6155160;23;19960;-73
2022/01/07 08:18:23;;;;;;;;;;;;;;;;;;6065397;23;19928;-73
2022/01/07 08:20:49;;;;;;;;;;;;;;;;;;6065232;23;19968;-73
2022/01/07 08:23:15;;;;;;;;;;;;;;;;;;6065473;23;19913;-73
2022/01/07 08:25:42;;;;;;;;;;;;;;;;;;6065298;23;19906;-73
2022/01/07 08:28:07;;;;;;;;;;;;;;;;;;6065123;23;19905;-73
2022/01/07 08:30:37;;;;;;;;;;;;;;;;;;6065125;23;19950;-73
2022/01/07 08:35:47;;;;;;;;;;;;;;;;;;6064824;23;19949;-73
2022/01/07 08:38:13;;;;;;;;;;;;;;;;;;6064955;23;20322;-73
2022/01/07 08:40:39;;;;;;;;;;;;;;;;;;6065545;23;19912;-73
2022/01/07 08:43:05;;;;;;;;;;;;;;;;;;6064634;23;19905;-73
2022/01/07 08:45:31;;;;;;;;;;;;;;;;;;6078243;23;19908;-73
2022/01/07 08:47:58;;;;;;;;;;;;;;;;;;6155030;23;19905;-73
2022/01/07 08:50:24;;;;;;;;;;;;;;;;;;6155220;23;19913;-73
2022/01/07 08:52:50;;;;;;;;;;;;;;;;;;6155085;23;19992;-73
2022/01/07 08:55:16;;;;;;;;;;;;;;;;;;6155303;23;20236;-73
2022/01/07 08:57:42;;;;;;;;;;;;;;;;;;6156007;23;19931;-73
2022/01/07 09:00:08;;;;;;;;;;;;;;;;;;6154705;23;19947;-74
2022/01/07 09:02:34;;;;;;;;;;;;;;;;;;6155174;23;20349;-73
2022/01/07 09:05:00;;;;;;;;;;;;;;;;;;6155051;23;19979;-73
2022/01/07 09:07:25;;;;;;;;;;;;;;;;;;6155111;23;19908;-73
2022/01/07 09:09:51;;;;;;;;;;;;;;;;;;6155142;23;19915;-73
2022/01/07 09:12:17;;;;;;;;;;;;;;;;;;6155085;23;19905;-74
2022/01/07 09:14:43;;;;;;;;;;;;;;;;;;6154740;23;19982;-73
2022/01/07 09:17:09;;;;;;;;;;;;;;;;;;6155525;23;20315;-73
2022/01/07 09:19:35;;;;;;;;;;;;;;;;;;6155015;23;19908;-73
2022/01/07 09:22:01;;;;;;;;;;;;;;;;;;6154891;23;20355;-73
2022/01/07 09:24:29;;;;;;;;;;;;;;;;;;6155762;23;19904;-73
2022/01/07 09:26:55;;;;;;;;;;;;;;;;;;6154795;23;19955;-73
2022/01/07 09:29:24;;;;;;;;;;;;;;;;;;6154539;23;20242;-73
2022/01/07 09:31:50;;;;;;;;;;;;;;;;;;6155124;23;19904;-73
2022/01/07 09:34:16;;;;;;;;;;;;;;;;;;6154568;23;19917;-73
2022/01/07 09:36:42;;;;;;;;;;;;;;;;;;6155159;23;19983;-74
2022/01/07 09:39:08;;;;;;;;;;;;;;;;;;6154869;23;19905;-73
2022/01/07 09:41:34;;;;;;;;;;;;;;;;;;6155016;23;19915;-73
2022/01/07 09:44:01;;;;;;;;;;;;;;;;;;6154224;23;19905;-73
2022/01/07 09:46:27;;;;;;;;;;;;;;;;;;6155301;23;20347;-73
2022/01/07 09:48:53;;;;;;;;;;;;;;;;;;6156431;23;19916;-73
2022/01/07 09:51:19;;;;;;;;;;;;;;;;;;6157202;23;19905;-73
2022/01/07 09:53:45;;;;;;;;;;;;;;;;;;6156719;23;19905;-73
2022/01/07 09:56:11;;;;;;;;;;;;;;;;;;6130098;23;19909;-73
2022/01/07 09:58:37;;;;;;;;;;;;;;;;;;6156357;23;19983;-73
2022/01/07 10:01:03;;;;;;;;;;;;;;;;;;6156199;23;19936;-73
2022/01/07 10:03:29;;;;;;;;;;;;;;;;;;6156967;23;19958;-73
2022/01/07 10:05:55;;;;;;;;;;;;;;;;;;6156522;23;20197;-73
2022/01/07 10:08:21;;;;;;;;;;;;;;;;;;6156494;23;19904;-73
2022/01/07 10:10:47;;;;;;;;;;;;;;;;;;6156771;23;20311;-73
2022/01/07 10:13:13;;;;;;;;;;;;;;;;;;6155971;23;19951;-73
2022/01/07 10:15:39;;;;;;;;;;;;;;;;;;6156612;23;19955;-73
2022/01/07 10:18:05;;;;;;;;;;;;;;;;;;6155859;23;19904;-73
2022/01/07 10:20:31;;;;;;;;;;;;;;;;;;6156980;23;20319;-73
2022/01/07 10:22:56;;;;;;;;;;;;;;;;;;6156291;23;20674;-73
2022/01/07 10:25:22;;;;;;;;;;;;;;;;;;6156460;23;19904;-73
2022/01/07 10:27:48;;;;;;;;;;;;;;;;;;6155924;23;19908;-73
2022/01/07 10:30:14;;;;;;;;;;;;;;;;;;6155972;23;19914;-74
2022/01/07 10:32:40;;;;;;;;;;;;;;;;;;6156255;23;20385;-74
2022/01/07 10:35:06;;;;;;;;;;;;;;;;;;6156110;23;19963;-74
2022/01/07 10:37:32;;;;;;;;;;;;;;;;;;6156813;23;20328;-74
2022/01/07 10:39:58;;;;;;;;;;;;;;;;;;6156124;23;19958;-73
2022/01/07 10:42:24;;;;;;;;;;;;;;;;;;6155904;23;19908;-73
2022/01/07 10:44:50;;;;;;;;;;;;;;;;;;6129604;23;19909;-74
2022/01/07 10:47:16;;;;;;;;;;;;;;;;;;6156126;23;19908;-73
2022/01/07 10:49:42;;;;;;;;;;;;;;;;;;6156643;23;19909;-73
2022/01/07 10:52:08;;;;;;;;;;;;;;;;;;6155834;23;19905;-73
2022/01/07 10:54:34;;;;;;;;;;;;;;;;;;6156257;23;19915;-73
2022/01/07 10:56:59;;;;;;;;;;;;;;;;;;6129555;23;19909;-73
2022/01/07 10:59:25;;;;;;;;;;;;;;;;;;6155717;23;20246;-74
2022/01/07 11:01:51;;;;;;;;;;;;;;;;;;6156102;23;19911;-73
2022/01/07 11:04:17;;;;;;;;;;;;;;;;;;6155923;23;19904;-73
2022/01/07 11:06:43;;;;;;;;;;;;;;;;;;6156523;23;19904;-74
2022/01/07 11:09:09;;;;;;;;;;;;;;;;;;6155653;23;20031;-73
2022/01/07 11:11:35;;;;;;;;;;;;;;;;;;6155527;23;20322;-73
2022/01/07 11:14:01;;;;;;;;;;;;;;;;;;6155810;23;19907;-74
2022/01/07 11:16:27;;;;;;;;;;;;;;;;;;6156068;23;19905;-73
2022/01/07 11:18:53;;;;;;;;;;;;;;;;;;6155990;23;19905;-73
2022/01/07 11:21:19;;;;;;;;;;;;;;;;;;6155761;23;19948;-73
2022/01/07 11:23:45;;;;;;;;;;;;;;;;;;6155581;23;19901;-73
2022/01/07 11:26:11;;;;;;;;;;;;;;;;;;6155107;23;19916;-74
2022/01/07 11:28:36;;;;;;;;;;;;;;;;;;6155803;23;19931;-74
2022/01/07 11:31:02;;;;;;;;;;;;;;;;;;6156092;23;19908;-74
2022/01/07 11:33:29;;;;;;;;;;;;;;;;;;6158452;23;19921;-74
2022/01/07 11:35:55;;;;;;;;;;;;;;;;;;6130218;23;19904;-74
2022/01/07 11:38:21;;;;;;;;;;;;;;;;;;6155792;23;19911;-74
2022/01/07 11:40:47;;;;;;;;;;;;;;;;;;6155221;23;19911;-74
2022/01/07 11:43:13;;;;;;;;;;;;;;;;;;6154979;23;20402;-74
2022/01/07 11:45:39;;;;;;;;;;;;;;;;;;6155703;23;19905;-74
2022/01/07 11:48:05;;;;;;;;;;;;;;;;;;6156029;23;19905;-74
2022/01/07 11:50:31;;;;;;;;;;;;;;;;;;6155638;23;20239;-74
2022/01/07 11:52:57;;;;;;;;;;;;;;;;;;6155597;23;19905;-74
2022/01/07 11:55:23;;;;;;;;;;;;;;;;;;6154486;23;19912;-74
2022/01/07 11:57:49;;;;;;;;;;;;;;;;;;6154921;23;19905;-74
2022/01/07 12:00:15;;;;;;;;;;;;;;;;;;6155581;23;20323;-73
2022/01/07 12:02:41;;;;;;;;;;;;;;;;;;6155421;23;19968;-74
2022/01/07 12:05:07;;;;;;;;;;;;;;;;;;6155056;23;19908;-73
2022/01/07 12:07:33;;;;;;;;;;;;;;;;;;6155508;23;19912;-74
2022/01/07 12:09:59;;;;;;;;;;;;;;;;;;6155144;23;20208;-74
2022/01/07 12:12:25;;;;;;;;;;;;;;;;;;6154971;23;19905;-73
2022/01/07 12:14:52;;;;;;;;;;;;;;;;;;6155511;23;19980;-73
2022/01/07 12:17:18;;;;;;;;;;;;;;;;;;6155347;23;19952;-74
2022/01/07 12:19:45;;;;;;;;;;;;;;;;;;6154924;23;19916;-75
2022/01/07 12:22:11;;;;;;;;;;;;;;;;;;6155001;23;20007;-74
2022/01/07 17:30:47;;;;;;;;;;;;;;;;;;6212857;23;19971;-75
2022/01/07 17:33:13;;;;;;;;;;;;;;;;;;6215751;23;19979;-75
2022/01/07 17:35:39;;;;;;;;;;;;;;;;;;6211951;23;19947;-72
2022/01/07 17:38:05;;;;;;;;;;;;;;;;;;6216439;23;19904;-74
2022/01/07 17:40:31;;;;;;;;;;;;;;;;;;6216009;23;19911;-74
2022/01/07 17:42:57;;;;;;;;;;;;;;;;;;6214989;23;19911;-74
2022/01/07 17:45:23;;;;;;;;;;;;;;;;;;6215401;23;19904;-74
2022/01/07 17:47:49;;;;;;;;;;;;;;;;;;6215732;23;19908;-74
2022/01/07 17:50:15;;;;;;;;;;;;;;;;;;6216496;23;19939;-75
2022/01/07 17:52:41;;;;;;;;;;;;;;;;;;6215934;23;19908;-74
2022/01/07 17:55:07;;;;;;;;;;;;;;;;;;6215836;23;19904;-74
2022/01/07 17:57:38;;;;;;;;;;;;;;;;;;6215638;23;19914;-74
2022/01/07 18:00:04;;;;;;;;;;;;;;;;;;6215709;23;20352;-74
2022/01/07 18:02:30;;;;;;;;;;;;;;;;;;6215752;23;19982;-75
2022/01/07 18:04:56;;;;;;;;;;;;;;;;;;6215842;23;19986;-74
2022/01/07 18:07:22;;;;;;;;;;;;;;;;;;6215599;23;20215;-74
2022/01/07 18:09:48;;;;;;;;;;;;;;;;;;6214569;23;19908;-76
2022/01/07 18:12:14;;;;;;;;;;;;;;;;;;6215522;23;19908;-74
2022/01/07 18:14:40;;;;;;;;;;;;;;;;;;6215014;23;19900;-74
2022/01/07 18:17:06;;;;;;;;;;;;;;;;;;6215098;23;19939;-74
2022/01/07 18:19:32;;;;;;;;;;;;;;;;;;6212493;23;19915;-74
2022/01/07 18:21:58;;;;;;;;;;;;;;;;;;6214067;23;19900;-74
2022/01/07 18:24:24;;;;;;;;;;;;;;;;;;6215828;23;19904;-75
2022/01/07 18:26:50;;;;;;;;;;;;;;;;;;6188176;23;19910;-74
2022/01/07 18:29:16;;;;;;;;;;;;;;;;;;6214473;23;19920;-73
2022/01/07 18:31:42;;;;;;;;;;;;;;;;;;6216226;23;20336;-74
2022/01/07 18:34:08;;;;;;;;;;;;;;;;;;6214852;23;19907;-72
2022/01/07 18:36:33;;;;;;;;;;;;;;;;;;6215008;23;19970;-74
2022/01/07 18:38:59;;;;;;;;;;;;;;;;;;6214566;23;19934;-74
2022/01/07 18:41:25;;;;;;;;;;;;;;;;;;6214221;23;19942;-74
2022/01/07 18:43:51;;;;;;;;;;;;;;;;;;6215576;23;19989;-74
2022/01/07 18:46:17;;;;;;;;;;;;;;;;;;6214852;23;19904;-74
2022/01/07 18:48:43;;;;;;;;;;;;;;;;;;6215523;23;19911;-76
2022/01/07 18:51:11;;;;;;;;;;;;;;;;;;6214727;23;19908;-76
2022/01/07 18:53:36;;;;;;;;;;;;;;;;;;6218003;23;20014;-74
2022/01/07 18:56:02;;;;;;;;;;;;;;;;;;6215383;23;19928;-74
2022/01/07 18:58:28;;;;;;;;;;;;;;;;;;6215301;23;20334;-73
2022/01/07 19:00:54;;;;;;;;;;;;;;;;;;6215332;23;19962;-74
2022/01/07 19:03:20;;;;;;;;;;;;;;;;;;6215120;23;19978;-75
2022/01/07 19:05:46;;;;;;;;;;;;;;;;;;6215869;23;19904;-74
2022/01/07 19:08:12;;;;;;;;;;;;;;;;;;6215837;23;19904;-75
2022/01/07 19:10:38;;;;;;;;;;;;;;;;;;6188249;23;20222;-74
2022/01/07 19:13:04;;;;;;;;;;;;;;;;;;6215633;23;19954;-73
2022/01/07 19:15:30;;;;;;;;;;;;;;;;;;6215192;23;20325;-74
2022/01/07 19:17:56;;;;;;;;;;;;;;;;;;6189374;23;19904;-74
2022/01/07 19:20:21;;;;;;;;;;;;;;;;;;6215429;23;19904;-75
2022/01/07 19:22:47;;;;;;;;;;;;;;;;;;6212771;23;19904;-75
2022/01/07 19:25:13;;;;;;;;;;;;;;;;;;6213944;23;19911;-74
2022/01/07 19:27:39;;;;;;;;;;;;;;;;;;6214594;23;19970;-75
2022/01/07 19:30:05;;;;;;;;;;;;;;;;;;6215381;23;20330;-74
2022/01/07 19:32:31;;;;;;;;;;;;;;;;;;6214719;23;19908;-74
2022/01/07 19:34:57;;;;;;;;;;;;;;;;;;6214659;23;19963;-74
2022/01/07 19:37:23;;;;;;;;;;;;;;;;;;6214048;23;20050;-74
2022/01/07 19:39:49;;;;;;;;;;;;;;;;;;6213281;23;19904;-74
2022/01/07 19:42:15;;;;;;;;;;;;;;;;;;6214565;23;19904;-74
2022/01/07 19:44:40;;;;;;;;;;;;;;;;;;6214475;23;19919;-74
2022/01/07 19:47:06;;;;;;;;;;;;;;;;;;6215042;23;19904;-74
2022/01/07 19:49:32;;;;;;;;;;;;;;;;;;6215081;23;19908;-74
2022/01/07 19:51:58;;;;;;;;;;;;;;;;;;6214657;23;19911;-74
2022/01/07 19:54:24;;;;;;;;;;;;;;;;;;6215259;23;20302;-74
2022/01/07 19:56:51;;;;;;;;;;;;;;;;;;6215041;23;20230;-76
2022/01/07 19:59:17;;;;;;;;;;;;;;;;;;6214945;23;19900;-74
2022/01/07 20:01:43;;;;;;;;;;;;;;;;;;6215117;23;19942;-74
2022/01/07 20:04:09;;;;;;;;;;;;;;;;;;6215991;23;19910;-74
2022/01/07 20:06:35;;;;;;;;;;;;;;;;;;6215166;23;19942;-74
2022/01/07 20:09:01;;;;;;;;;;;;;;;;;;6215151;23;19911;-73
2022/01/07 20:11:26;;;;;;;;;;;;;;;;;;6188325;23;19904;-74
2022/01/07 20:13:52;;;;;;;;;;;;;;;;;;6215125;23;19906;-74
2022/01/07 20:16:18;;;;;;;;;;;;;;;;;;6215209;23;19978;-74
2022/01/07 20:18:46;;;;;;;;;;;;;;;;;;6215402;23;19911;-74
2022/01/07 20:21:12;;;;;;;;;;;;;;;;;;6215014;23;19904;-73
2022/01/07 20:23:38;;;;;;;;;;;;;;;;;;6214705;23;20329;-73
2022/01/07 20:26:04;;;;;;;;;;;;;;;;;;6215337;23;19904;-73
2022/01/07 20:28:30;;;;;;;;;;;;;;;;;;6215234;23;19927;-73
2022/01/07 20:30:56;;;;;;;;;;;;;;;;;;6214572;23;19923;-73
2022/01/07 20:33:22;;;;;;;;;;;;;;;;;;6215160;23;19904;-74
2022/01/07 20:35:47;;;;;;;;;;;;;;;;;;6214594;23;19947;-73
2022/01/07 20:38:13;;;;;;;;;;;;;;;;;;6215235;23;19924;-73
2022/01/07 20:40:39;;;;;;;;;;;;;;;;;;6215134;23;19982;-73
2022/01/07 20:43:05;;;;;;;;;;;;;;;;;;6213997;23;20006;-73
2022/01/07 20:45:33;;;;;;;;;;;;;;;;;;6214591;23;19912;-73
2022/01/07 20:47:59;;;;;;;;;;;;;;;;;;6214250;23;20322;-74
2022/01/07 20:50:25;;;;;;;;;;;;;;;;;;6214457;23;19908;-74
2022/01/07 20:52:51;;;;;;;;;;;;;;;;;;6214729;23;19911;-74
2022/01/07 20:55:17;;;;;;;;;;;;;;;;;;6214437;23;20380;-73
2022/01/07 20:57:43;;;;;;;;;;;;;;;;;;6214051;23;19904;-73
2022/01/07 21:00:09;;;;;;;;;;;;;;;;;;6213731;23;19908;-74
2022/01/07 21:02:35;;;;;;;;;;;;;;;;;;6213548;23;20226;-73
2022/01/07 21:05:01;;;;;;;;;;;;;;;;;;6212379;23;19908;-74
2022/01/07 21:07:27;;;;;;;;;;;;;;;;;;6213424;23;19942;-73
2022/01/07 21:09:56;;;;;;;;;;;;;;;;;;6213543;23;19907;-74
2022/01/07 21:12:22;;;;;;;;;;;;;;;;;;6213729;23;19923;-74
2022/01/07 21:14:48;;;;;;;;;;;;;;;;;;6213662;23;19904;-74
2022/01/07 21:17:14;;;;;;;;;;;;;;;;;;6214089;23;19904;-74
2022/01/07 21:19:40;;;;;;;;;;;;;;;;;;6213159;23;19907;-74
2022/01/07 21:22:07;;;;;;;;;;;;;;;;;;6213378;23;19927;-74
2022/01/07 21:24:33;;;;;;;;;;;;;;;;;;6213584;23;19904;-74
2022/01/07 21:26:59;;;;;;;;;;;;;;;;;;6213272;23;19927;-74
2022/01/07 21:29:25;;;;;;;;;;;;;;;;;;6186366;23;19916;-74
2022/01/07 21:31:51;;;;;;;;;;;;;;;;;;6187185;23;19912;-74
2022/01/07 21:34:16;;;;;;;;;;;;;;;;;;6213083;23;19904;-74
2022/01/07 21:36:42;;;;;;;;;;;;;;;;;;6213496;23;20260;-74
2022/01/07 21:39:10;;;;;;;;;;;;;;;;;;6186756;23;19912;-74
2022/01/07 21:41:36;;;;;;;;;;;;;;;;;;6213917;23;19904;-74
2022/01/07 21:44:02;;;;;;;;;;;;;;;;;;6187434;23;19904;-74
2022/01/07 21:46:28;;;;;;;;;;;;;;;;;;6215339;23;19904;-74
2022/01/07 21:48:54;;;;;;;;;;;;;;;;;;6213451;23;20345;-74
2022/01/07 21:51:20;;;;;;;;;;;;;;;;;;6215150;23;19915;-74
2022/01/07 21:53:46;;;;;;;;;;;;;;;;;;6215382;23;19911;-74
2022/01/07 21:56:12;;;;;;;;;;;;;;;;;;6215112;23;19904;-74